createdAt,value
2022-11-14T00:00:53.181Z,97.87
2022-11-14T00:01:52.946Z,97.77
2022-11-14T00:02:53.103Z,97.35
2022-11-14T00:03:52.943Z,97.66
2022-11-14T00:04:52.942Z,96.27
2022-11-14T00:05:52.937Z,96.27
2022-11-14T00:06:52.962Z,96.01
2022-11-14T00:07:52.921Z,96.17
2022-11-14T00:08:52.914Z,95.70
2022-11-14T00:09:52.888Z,95.34
2022-11-14T00:10:52.942Z,95.03
2022-11-14T00:11:52.928Z,94.93
2022-11-14T00:12:52.882Z,95.44
2022-11-14T00:13:52.870Z,95.34
2022-11-14T00:14:52.870Z,95.44
2022-11-14T00:15:52.879Z,95.65
2022-11-14T00:16:52.915Z,96.17
2022-11-14T00:17:52.859Z,96.31
2022-11-14T00:18:52.937Z,96.52
2022-11-14T00:19:52.850Z,96.37
2022-11-14T00:20:52.856Z,96.31
2022-11-14T00:21:52.855Z,96.11
2022-11-14T00:22:53.139Z,96.52
2022-11-14T00:23:52.830Z,96.57
2022-11-14T00:24:52.818Z,96.98
2022-11-14T00:25:52.792Z,98.02
2022-11-14T00:26:52.800Z,97.60
2022-11-14T00:27:52.938Z,98.02
2022-11-14T00:28:52.799Z,98.18
2022-11-14T00:29:52.807Z,98.33
2022-11-14T00:30:52.799Z,97.81
2022-11-14T00:31:52.832Z,98.22
2022-11-14T00:32:52.780Z,98.39
2022-11-14T00:33:52.889Z,97.77
2022-11-14T00:34:52.865Z,98.02
2022-11-14T00:35:52.778Z,97.09
2022-11-14T00:36:52.761Z,97.71
2022-11-14T00:37:52.755Z,97.09
2022-11-14T00:38:52.775Z,98.12
2022-11-14T00:39:52.724Z,97.75
2022-11-14T00:40:52.747Z,98.22
2022-11-14T00:41:52.750Z,98.33
2022-11-14T00:42:52.729Z,98.64
2022-11-14T00:43:52.714Z,98.33
2022-11-14T00:44:52.813Z,98.22
2022-11-14T00:45:52.699Z,98.02
2022-11-14T00:46:52.703Z,97.77
2022-11-14T00:47:52.703Z,97.14
2022-11-14T00:48:52.697Z,97.14
2022-11-14T00:49:52.784Z,97.35
2022-11-14T00:50:52.678Z,96.62
2022-11-14T00:51:52.677Z,97.25
2022-11-14T00:52:52.675Z,96.05
2022-11-14T00:53:52.648Z,97.81
2022-11-14T00:54:52.658Z,97.14
2022-11-14T00:55:52.672Z,98.02
2022-11-14T00:56:52.647Z,97.04
2022-11-14T00:57:52.639Z,96.98
2022-11-14T00:58:52.655Z,97.56
2022-11-14T00:59:52.674Z,97.45
2022-11-14T01:00:52.826Z,97.66
2022-11-14T01:01:57.574Z,96.42
2022-11-14T01:02:53.613Z,96.52
2022-11-14T01:03:52.616Z,96.94
2022-11-14T01:04:52.618Z,97.56
2022-11-14T01:05:52.601Z,97.45
2022-11-14T01:06:52.716Z,97.45
2022-11-14T01:07:52.602Z,97.50
2022-11-14T01:08:52.654Z,97.81
2022-11-14T01:09:52.578Z,98.69
2022-11-14T01:10:52.587Z,98.90
2022-11-14T01:11:52.686Z,99.87
2022-11-14T01:12:52.553Z,99.99
2022-11-14T01:13:52.571Z,99.99
2022-11-14T01:14:52.544Z,99.99
2022-11-14T01:15:52.550Z,99.99
2022-11-14T01:16:52.547Z,99.99
2022-11-14T01:17:52.581Z,99.99
2022-11-14T01:18:52.591Z,99.99
2022-11-14T01:19:52.542Z,99.99
2022-11-14T01:20:52.601Z,99.99
2022-11-14T01:21:52.530Z,99.99
2022-11-14T01:22:52.706Z,99.99
2022-11-14T01:23:52.520Z,99.99
2022-11-14T01:24:52.513Z,99.99
2022-11-14T01:25:52.484Z,99.99
2022-11-14T01:26:52.482Z,99.99
2022-11-14T01:27:52.487Z,99.99
2022-11-14T01:28:52.521Z,99.99
2022-11-14T01:29:52.503Z,99.99
2022-11-14T01:30:52.472Z,99.99
2022-11-14T01:31:53.462Z,99.99
2022-11-14T01:32:52.472Z,99.66
2022-11-14T01:33:52.505Z,99.82
2022-11-14T01:34:52.463Z,99.77
2022-11-14T01:35:52.492Z,99.99
2022-11-14T01:36:52.480Z,99.99
2022-11-14T01:37:52.474Z,99.99
2022-11-14T01:38:52.524Z,99.99
2022-11-14T01:39:52.442Z,99.99
2022-11-14T01:40:52.432Z,99.99
2022-11-14T01:41:52.420Z,99.62
2022-11-14T01:42:52.419Z,99.82
2022-11-14T01:43:52.421Z,99.93
2022-11-14T01:44:52.583Z,99.99
2022-11-14T01:45:52.401Z,99.56
2022-11-14T01:46:52.412Z,99.77
2022-11-14T01:47:52.412Z,99.66
2022-11-14T01:48:52.408Z,99.99
2022-11-14T01:49:52.379Z,99.99
2022-11-14T01:50:52.504Z,99.99
2022-11-14T01:51:52.364Z,99.99
2022-11-14T01:52:52.389Z,99.99
2022-11-14T01:53:52.355Z,99.99
2022-11-14T01:54:52.451Z,99.99
2022-11-14T01:55:52.472Z,99.99
2022-11-14T01:56:52.370Z,99.99
2022-11-14T01:57:52.331Z,99.99
2022-11-14T01:58:52.324Z,99.99
2022-11-14T01:59:52.334Z,99.99
2022-11-14T02:00:52.323Z,99.99
2022-11-14T02:01:52.399Z,99.98
2022-11-14T02:02:52.352Z,99.99
2022-11-14T02:03:52.323Z,99.99
2022-11-14T02:04:52.305Z,99.99
2022-11-14T02:05:52.279Z,99.99
2022-11-14T02:06:52.468Z,99.99
2022-11-14T02:07:52.301Z,99.82
2022-11-14T02:08:52.289Z,99.77
2022-11-14T02:09:52.274Z,99.98
2022-11-14T02:10:52.367Z,99.62
2022-11-14T02:11:52.325Z,99.99
2022-11-14T02:12:52.318Z,99.77
2022-11-14T02:13:52.253Z,99.99
2022-11-14T02:14:52.256Z,99.87
2022-11-14T02:15:52.240Z,99.87
2022-11-14T02:17:22.260Z,99.99
2022-11-14T02:17:54.259Z,99.77
2022-11-14T02:18:52.247Z,99.77
2022-11-14T02:19:52.219Z,99.99
2022-11-14T02:20:52.223Z,99.99
2022-11-14T02:21:52.218Z,99.99
2022-11-14T02:22:52.242Z,99.99
2022-11-14T02:23:52.249Z,99.99
2022-11-14T02:24:52.213Z,99.99
2022-11-14T02:25:52.186Z,99.99
2022-11-14T02:26:52.289Z,99.99
2022-11-14T02:27:52.212Z,99.99
2022-11-14T02:28:52.211Z,99.99
2022-11-14T02:29:52.179Z,99.99
2022-11-14T02:30:52.169Z,99.99
2022-11-14T02:31:52.171Z,99.99
2022-11-14T02:33:54.160Z,99.99
2022-11-14T02:34:52.176Z,99.99
2022-11-14T02:35:52.159Z,99.99
2022-11-14T02:36:52.145Z,99.99
2022-11-14T02:37:52.149Z,99.99
2022-11-14T02:38:52.180Z,99.99
2022-11-14T02:39:52.127Z,99.99
2022-11-14T02:40:52.124Z,99.99
2022-11-14T02:41:52.135Z,99.99
2022-11-14T02:42:52.237Z,99.99
2022-11-14T02:43:52.156Z,99.99
2022-11-14T02:44:52.099Z,99.99
2022-11-14T02:45:52.091Z,99.99
2022-11-14T02:46:52.162Z,99.99
2022-11-14T02:47:52.114Z,99.99
2022-11-14T02:48:52.075Z,99.99
2022-11-14T02:49:52.115Z,99.99
2022-11-14T02:50:52.078Z,99.99
2022-11-14T02:51:52.076Z,99.99
2022-11-14T02:52:52.056Z,99.99
2022-11-14T02:53:52.088Z,99.99
2022-11-14T02:54:54.615Z,99.99
2022-11-14T02:55:53.037Z,99.99
2022-11-14T02:56:52.044Z,99.99
2022-11-14T02:57:52.027Z,99.99
2022-11-14T02:58:52.120Z,99.99
2022-11-14T02:59:52.018Z,99.99
2022-11-14T03:01:18.712Z,99.99
2022-11-14T03:01:54.050Z,99.99
2022-11-14T03:02:52.012Z,99.99
2022-11-14T03:03:52.011Z,99.99
2022-11-14T03:04:52.001Z,99.99
2022-11-14T03:05:52.024Z,99.99
2022-11-14T03:06:52.064Z,99.99
2022-11-14T03:07:51.991Z,99.99
2022-11-14T03:08:51.992Z,99.99
2022-11-14T03:09:51.989Z,99.99
2022-11-14T03:10:51.968Z,99.98
2022-11-14T03:11:52.103Z,99.99
2022-11-14T03:12:51.991Z,99.99
2022-11-14T03:13:51.972Z,99.72
2022-11-14T03:14:52.044Z,99.66
2022-11-14T03:15:51.951Z,99.66
2022-11-14T03:16:51.961Z,99.93
2022-11-14T03:17:51.927Z,99.00
2022-11-14T03:18:52.935Z,99.66
2022-11-14T03:19:51.934Z,98.69
2022-11-14T03:20:51.923Z,99.72
2022-11-14T03:21:51.929Z,99.72
2022-11-14T03:22:51.938Z,99.35
2022-11-14T03:23:51.915Z,99.77
2022-11-14T03:24:51.897Z,99.99
2022-11-14T03:25:51.877Z,99.99
2022-11-14T03:26:51.882Z,99.99
2022-11-14T03:27:51.903Z,99.99
2022-11-14T03:28:51.883Z,99.99
2022-11-14T03:29:51.868Z,99.99
2022-11-14T03:30:51.968Z,99.99
2022-11-14T03:31:51.864Z,99.98
2022-11-14T03:32:51.853Z,99.87
2022-11-14T03:33:51.883Z,99.87
2022-11-14T03:34:51.829Z,99.66
2022-11-14T03:35:51.843Z,99.46
2022-11-14T03:36:51.823Z,99.71
2022-11-14T03:37:56.183Z,99.99
2022-11-14T03:38:52.834Z,99.99
2022-11-14T03:39:51.820Z,99.99
2022-11-14T03:40:51.874Z,99.99
2022-11-14T03:41:51.825Z,99.99
2022-11-14T03:42:51.815Z,99.99
2022-11-14T03:43:51.813Z,99.99
2022-11-14T03:44:51.833Z,99.99
2022-11-14T03:45:51.791Z,99.99
2022-11-14T03:46:51.869Z,99.99
2022-11-14T03:47:51.789Z,99.99
2022-11-14T03:48:51.780Z,99.99
2022-11-14T03:49:51.792Z,99.99
2022-11-14T03:50:51.768Z,99.99
2022-11-14T03:51:51.758Z,99.99
2022-11-14T03:52:51.745Z,99.99
2022-11-14T03:53:51.776Z,99.99
2022-11-14T03:54:51.875Z,99.99
2022-11-14T03:55:51.735Z,99.99
2022-11-14T03:56:51.722Z,99.99
2022-11-14T03:57:51.741Z,99.99
2022-11-14T03:58:51.725Z,99.99
2022-11-14T03:59:51.740Z,99.99
2022-11-14T04:00:51.737Z,99.99
2022-11-14T04:01:51.705Z,99.99
2022-11-14T04:02:51.789Z,99.99
2022-11-14T04:03:51.711Z,99.99
2022-11-14T04:04:51.697Z,99.99
2022-11-14T04:05:51.689Z,99.99
2022-11-14T04:06:51.705Z,99.99
2022-11-14T04:07:51.672Z,99.99
2022-11-14T04:08:51.679Z,99.99
2022-11-14T04:09:51.692Z,99.99
2022-11-14T04:10:51.673Z,99.99
2022-11-14T04:11:51.651Z,99.99
2022-11-14T04:12:51.654Z,99.99
2022-11-14T04:13:51.673Z,99.99
2022-11-14T04:14:51.667Z,99.99
2022-11-14T04:15:51.637Z,99.99
2022-11-14T04:16:51.616Z,99.99
2022-11-14T04:17:51.636Z,99.99
2022-11-14T04:18:51.708Z,99.99
2022-11-14T04:19:51.643Z,99.99
2022-11-14T04:20:51.612Z,99.99
2022-11-14T04:21:51.598Z,99.99
2022-11-14T04:22:51.595Z,99.99
2022-11-14T04:23:51.619Z,99.99
2022-11-14T04:24:51.601Z,99.99
2022-11-14T04:25:51.586Z,99.99
2022-11-14T04:26:51.587Z,99.99
2022-11-14T04:27:51.581Z,99.99
2022-11-14T04:28:51.575Z,99.99
2022-11-14T04:29:51.566Z,99.99
2022-11-14T04:30:51.576Z,99.99
2022-11-14T04:31:51.549Z,99.99
2022-11-14T04:32:51.534Z,99.99
2022-11-14T04:33:51.562Z,99.99
2022-11-14T04:34:51.646Z,99.99
2022-11-14T04:35:51.528Z,99.99
2022-11-14T04:36:51.515Z,99.99
2022-11-14T04:37:51.532Z,99.99
2022-11-14T04:38:51.534Z,99.99
2022-11-14T04:39:51.526Z,99.99
2022-11-14T04:40:51.501Z,99.99
2022-11-14T04:41:51.494Z,99.99
2022-11-14T04:42:51.509Z,99.99
2022-11-14T04:43:51.509Z,99.99
2022-11-14T04:44:51.544Z,99.99
2022-11-14T04:45:51.492Z,99.99
2022-11-14T04:46:51.475Z,99.99
2022-11-14T04:47:51.481Z,99.99
2022-11-14T04:48:51.523Z,99.99
2022-11-14T04:49:51.457Z,99.99
2022-11-14T04:50:51.548Z,99.99
2022-11-14T04:51:52.303Z,99.99
2022-11-14T04:52:51.452Z,99.99
2022-11-14T04:53:51.454Z,99.99
2022-11-14T04:54:51.476Z,99.99
2022-11-14T04:55:51.445Z,99.99
2022-11-14T04:56:51.420Z,99.99
2022-11-14T04:57:51.438Z,99.99
2022-11-14T04:58:51.421Z,99.76
2022-11-14T04:59:51.758Z,99.99
2022-11-14T05:00:51.392Z,99.92
2022-11-14T05:01:51.486Z,99.92
2022-11-14T05:02:51.386Z,99.51
2022-11-14T05:03:51.406Z,98.78
2022-11-14T05:04:52.501Z,99.82
2022-11-14T05:05:51.376Z,98.99
2022-11-14T05:06:51.473Z,98.78
2022-11-14T05:07:51.424Z,98.36
2022-11-14T05:08:51.343Z,98.57
2022-11-14T05:09:51.347Z,98.36
2022-11-14T05:10:51.460Z,98.57
2022-11-14T05:11:51.345Z,99.09
2022-11-14T05:12:51.346Z,98.57
2022-11-14T05:13:51.340Z,97.64
2022-11-14T05:14:51.359Z,97.74
2022-11-14T05:15:51.439Z,98.47
2022-11-14T05:16:51.333Z,98.36
2022-11-14T05:17:51.321Z,98.41
2022-11-14T05:18:51.305Z,98.68
2022-11-14T05:19:51.327Z,98.41
2022-11-14T05:20:51.292Z,98.41
2022-11-14T05:21:51.350Z,97.99
2022-11-14T05:22:51.303Z,98.03
2022-11-14T05:23:51.282Z,97.52
2022-11-14T05:24:51.284Z,97.93
2022-11-14T05:25:54.787Z,98.24
2022-11-14T05:26:53.392Z,98.20
2022-11-14T05:27:51.311Z,98.03
2022-11-14T05:28:51.256Z,98.45
2022-11-14T05:29:51.249Z,97.83
2022-11-14T05:30:51.248Z,97.41
2022-11-14T05:31:51.230Z,98.08
2022-11-14T05:32:51.267Z,97.93
2022-11-14T05:33:51.254Z,97.04
2022-11-14T05:34:51.215Z,97.77
2022-11-14T05:35:51.238Z,97.98
2022-11-14T05:36:51.258Z,97.45
2022-11-14T05:37:52.968Z,97.40
2022-11-14T05:38:51.201Z,97.77
2022-11-14T05:39:51.190Z,98.02
2022-11-14T05:40:51.180Z,97.50
2022-11-14T05:41:51.188Z,98.54
2022-11-14T05:42:51.197Z,98.44
2022-11-14T05:43:51.213Z,98.13
2022-11-14T05:44:51.162Z,98.13
2022-11-14T05:45:52.156Z,98.19
2022-11-14T05:46:51.183Z,98.60
2022-11-14T05:47:51.159Z,98.13
2022-11-14T05:48:51.302Z,97.81
2022-11-14T05:49:51.150Z,98.02
2022-11-14T05:50:51.133Z,97.98
2022-11-14T05:51:51.142Z,98.02
2022-11-14T05:52:51.135Z,98.54
2022-11-14T05:53:51.112Z,98.02
2022-11-14T05:54:51.141Z,98.54
2022-11-14T05:55:51.110Z,98.13
2022-11-14T05:56:51.103Z,98.23
2022-11-14T05:57:51.102Z,98.29
2022-11-14T05:58:51.090Z,98.33
2022-11-14T05:59:51.097Z,97.40
2022-11-14T06:00:54.303Z,97.19
2022-11-14T06:01:51.107Z,97.35
2022-11-14T06:02:51.087Z,97.35
2022-11-14T06:03:51.077Z,98.02
2022-11-14T06:04:51.072Z,97.50
2022-11-14T06:05:51.271Z,97.50
2022-11-14T06:06:51.130Z,97.30
2022-11-14T06:07:51.055Z,97.61
2022-11-14T06:08:51.045Z,97.61
2022-11-14T06:09:51.056Z,97.44
2022-11-14T06:10:51.062Z,96.47
2022-11-14T06:11:51.019Z,97.03
2022-11-14T06:12:51.034Z,97.24
2022-11-14T06:13:51.042Z,97.34
2022-11-14T06:14:51.005Z,97.34
2022-11-14T06:15:51.010Z,97.65
2022-11-14T06:16:51.816Z,97.55
2022-11-14T06:17:50.992Z,97.86
2022-11-14T06:18:51.001Z,98.38
2022-11-14T06:19:50.986Z,98.27
2022-11-14T06:20:50.984Z,98.07
2022-11-14T06:21:51.070Z,98.38
2022-11-14T06:22:50.955Z,98.53
2022-11-14T06:23:51.730Z,98.48
2022-11-14T06:24:50.935Z,98.80
2022-11-14T06:25:50.990Z,98.69
2022-11-14T06:26:50.960Z,98.69
2022-11-14T06:27:50.970Z,98.69
2022-11-14T06:28:50.946Z,98.59
2022-11-14T06:29:50.951Z,98.80
2022-11-14T06:30:50.969Z,98.11
2022-11-14T06:31:50.918Z,98.27
2022-11-14T06:32:51.957Z,98.63
2022-11-14T06:33:50.908Z,98.38
2022-11-14T06:34:50.887Z,98.27
2022-11-14T06:35:50.926Z,98.69
2022-11-14T06:36:50.907Z,99.21
2022-11-14T06:37:50.896Z,99.32
2022-11-14T06:38:50.897Z,99.42
2022-11-14T06:39:50.873Z,99.99
2022-11-14T06:40:51.865Z,99.94
2022-11-14T06:41:50.865Z,99.94
2022-11-14T06:42:50.879Z,99.99
2022-11-14T06:43:50.872Z,99.94
2022-11-14T06:44:50.850Z,99.99
2022-11-14T06:45:50.890Z,99.99
2022-11-14T06:46:50.839Z,99.21
2022-11-14T06:47:50.851Z,98.80
2022-11-14T06:48:50.830Z,98.54
2022-11-14T06:49:50.812Z,98.44
2022-11-14T06:50:50.817Z,98.54
2022-11-14T06:51:50.816Z,97.86
2022-11-14T06:52:51.612Z,98.33
2022-11-14T06:53:50.832Z,97.92
2022-11-14T06:54:50.804Z,98.23
2022-11-14T06:55:51.732Z,98.13
2022-11-14T06:56:50.885Z,98.23
2022-11-14T06:57:50.781Z,98.33
2022-11-14T06:58:50.802Z,98.65
2022-11-14T06:59:50.777Z,98.17
2022-11-14T07:00:50.753Z,97.30
2022-11-14T07:01:50.768Z,97.13
2022-11-14T07:02:50.796Z,97.50
2022-11-14T07:03:51.770Z,98.02
2022-11-14T07:04:50.732Z,98.13
2022-11-14T07:05:50.760Z,97.92
2022-11-14T07:06:50.792Z,98.33
2022-11-14T07:07:50.742Z,97.61
2022-11-14T07:08:50.736Z,97.40
2022-11-14T07:09:50.725Z,98.02
2022-11-14T07:10:50.721Z,98.02
2022-11-14T07:11:50.789Z,97.98
2022-11-14T07:12:50.711Z,98.13
2022-11-14T07:13:50.713Z,98.02
2022-11-14T07:14:50.715Z,97.50
2022-11-14T07:15:50.690Z,97.61
2022-11-14T07:16:50.675Z,97.81
2022-11-14T07:17:50.685Z,97.86
2022-11-14T07:18:50.677Z,99.52
2022-11-14T07:19:50.683Z,99.01
2022-11-14T07:20:51.185Z,97.86
2022-11-14T07:21:50.658Z,97.61
2022-11-14T07:22:50.654Z,98.13
2022-11-14T07:23:50.649Z,98.44
2022-11-14T07:24:50.647Z,98.33
2022-11-14T07:25:50.644Z,98.08
2022-11-14T07:26:51.236Z,98.02
2022-11-14T07:27:50.615Z,97.98
2022-11-14T07:28:53.622Z,98.23
2022-11-14T07:29:51.629Z,97.81
2022-11-14T07:30:50.597Z,96.94
2022-11-14T07:31:50.626Z,96.31
2022-11-14T07:32:50.592Z,96.31
2022-11-14T07:33:50.621Z,95.17
2022-11-14T07:34:50.617Z,95.69
2022-11-14T07:35:50.601Z,96.11
2022-11-14T07:36:50.593Z,96.31
2022-11-14T07:37:50.635Z,95.79
2022-11-14T07:38:50.618Z,94.92
2022-11-14T07:39:50.731Z,94.98
2022-11-14T07:40:52.444Z,94.46
2022-11-14T07:41:50.643Z,93.84
2022-11-14T07:42:50.551Z,92.86
2022-11-14T07:43:50.561Z,93.59
2022-11-14T07:44:50.599Z,93.70
2022-11-14T07:45:50.571Z,93.70
2022-11-14T07:46:50.525Z,92.97
2022-11-14T07:47:50.552Z,92.76
2022-11-14T07:48:50.622Z,92.93
2022-11-14T07:49:51.260Z,92.36
2022-11-14T07:50:50.526Z,92.93
2022-11-14T07:51:50.502Z,92.36
2022-11-14T07:52:50.551Z,90.87
2022-11-14T07:53:50.517Z,89.86
2022-11-14T07:54:50.497Z,88.01
2022-11-14T07:55:50.475Z,85.76
2022-11-14T07:56:50.488Z,83.72
2022-11-14T07:57:50.627Z,82.30
2022-11-14T07:58:50.479Z,81.75
2022-11-14T07:59:50.450Z,80.99
2022-11-14T08:00:50.502Z,78.69
2022-11-14T08:01:50.461Z,76.49
2022-11-14T08:02:50.436Z,76.66
2022-11-14T08:03:50.450Z,76.21
2022-11-14T08:04:50.454Z,74.46
2022-11-14T08:05:50.447Z,71.97
2022-11-14T08:06:50.471Z,70.97
2022-11-14T08:07:50.391Z,69.20
2022-11-14T08:08:50.451Z,68.32
2022-11-14T08:09:50.396Z,67.36
2022-11-14T08:10:50.387Z,65.77
2022-11-14T08:11:50.383Z,65.66
2022-11-14T08:13:10.791Z,65.93
2022-11-14T08:13:53.182Z,65.52
2022-11-14T08:14:50.362Z,65.93
2022-11-14T08:15:50.333Z,67.29
2022-11-14T08:16:50.337Z,67.67
2022-11-14T08:17:50.330Z,66.28
2022-11-14T08:18:50.405Z,65.56
2022-11-14T08:19:50.436Z,65.53
2022-11-14T08:20:50.392Z,64.81
2022-11-14T08:21:50.313Z,65.53
2022-11-14T08:22:50.305Z,65.09
2022-11-14T08:23:50.282Z,63.83
2022-11-14T08:24:50.529Z,63.29
2022-11-14T08:25:50.292Z,63.23
2022-11-14T08:26:50.281Z,62.02
2022-11-14T08:27:50.257Z,59.30
2022-11-14T08:28:50.273Z,57.21
2022-11-14T08:29:50.258Z,57.51
2022-11-14T08:30:50.282Z,55.20
2022-11-14T08:31:50.245Z,53.93
2022-11-14T08:32:50.861Z,52.81
2022-11-14T08:33:50.222Z,53.37
2022-11-14T08:34:50.237Z,52.81
2022-11-14T08:35:50.325Z,51.78
2022-11-14T08:36:50.220Z,51.17
2022-11-14T08:37:50.220Z,51.53
2022-11-14T08:38:51.656Z,51.53
2022-11-14T08:39:51.209Z,51.32
2022-11-14T08:40:50.210Z,51.83
2022-11-14T08:41:50.220Z,51.04
2022-11-14T08:42:50.187Z,52.73
2022-11-14T08:43:50.173Z,54.00
2022-11-14T08:44:52.137Z,54.94
2022-11-14T08:45:51.165Z,55.48
2022-11-14T08:46:50.179Z,57.41
2022-11-14T08:47:50.767Z,56.16
2022-11-14T08:48:50.144Z,54.79
2022-11-14T08:49:50.762Z,54.74
2022-11-14T08:50:50.230Z,53.32
2022-11-14T08:51:50.145Z,53.50
2022-11-14T08:52:50.155Z,52.97
2022-11-14T08:53:50.109Z,52.54
2022-11-14T08:54:50.095Z,51.70
2022-11-14T08:55:50.112Z,50.79
2022-11-14T08:56:50.114Z,51.70
2022-11-14T08:57:50.207Z,50.74
2022-11-14T08:58:50.096Z,50.62
2022-11-14T08:59:50.061Z,50.80
2022-11-14T09:00:50.074Z,50.16
2022-11-14T09:01:51.080Z,48.50
2022-11-14T09:02:50.118Z,47.47
2022-11-14T09:03:52.222Z,48.79
2022-11-14T09:04:50.110Z,49.16
2022-11-14T09:05:50.045Z,47.96
2022-11-14T09:06:50.106Z,47.00
2022-11-14T09:07:50.042Z,47.43
2022-11-14T09:08:50.147Z,47.81
2022-11-14T09:09:50.030Z,45.13
2022-11-14T09:10:50.014Z,45.31
2022-11-14T09:11:50.010Z,44.36
2022-11-14T09:12:50.012Z,43.02
2022-11-14T09:13:50.004Z,42.90
2022-11-14T09:14:50.065Z,43.86
2022-11-14T09:15:50.017Z,44.38
2022-11-14T09:16:50.005Z,43.90
2022-11-14T09:17:49.985Z,46.34
2022-11-14T09:18:49.992Z,46.56
2022-11-14T09:19:49.986Z,47.00
2022-11-14T09:20:49.947Z,46.66
2022-11-14T09:21:49.958Z,45.75
2022-11-14T09:22:49.975Z,45.21
2022-11-14T09:23:49.937Z,44.68
2022-11-14T09:24:49.953Z,43.76
2022-11-14T09:25:50.039Z,44.02
2022-11-14T09:26:55.246Z,45.29
2022-11-14T09:27:50.909Z,46.76
2022-11-14T09:28:49.915Z,47.15
2022-11-14T09:29:49.903Z,48.28
2022-11-14T09:30:49.928Z,50.02
2022-11-14T09:31:49.907Z,48.50
2022-11-14T09:32:49.903Z,50.30
2022-11-14T09:33:49.883Z,49.07
2022-11-14T09:34:49.895Z,48.92
2022-11-14T09:35:49.864Z,48.19
2022-11-14T09:36:49.993Z,49.07
2022-11-14T09:37:49.862Z,48.85
2022-11-14T09:38:49.864Z,46.19
2022-11-14T09:39:49.848Z,46.55
2022-11-14T09:40:50.531Z,43.77
2022-11-14T09:41:49.869Z,44.78
2022-11-14T09:42:49.824Z,44.78
2022-11-14T09:43:49.834Z,43.58
2022-11-14T09:44:49.833Z,43.27
2022-11-14T09:45:49.831Z,43.58
2022-11-14T09:46:49.822Z,43.98
2022-11-14T09:47:50.142Z,45.06
2022-11-14T09:48:49.805Z,41.17
2022-11-14T09:49:49.784Z,40.53
2022-11-14T09:50:49.831Z,39.74
2022-11-14T09:51:49.789Z,39.70
2022-11-14T09:52:49.872Z,39.70
2022-11-14T09:53:49.783Z,40.42
2022-11-14T09:54:49.782Z,39.82
2022-11-14T09:55:49.763Z,39.62
2022-11-14T09:56:49.754Z,39.10
2022-11-14T09:57:49.753Z,39.70
2022-11-14T09:58:49.795Z,39.52
2022-11-14T09:59:49.720Z,40.45
2022-11-14T10:00:49.728Z,41.80
2022-11-14T10:01:49.780Z,43.04
2022-11-14T10:02:49.730Z,44.06
2022-11-14T10:03:49.885Z,42.83
2022-11-14T10:04:49.715Z,43.04
2022-11-14T10:05:49.735Z,42.57
2022-11-14T10:06:49.735Z,45.12
2022-11-14T10:07:49.694Z,44.70
2022-11-14T10:08:49.691Z,44.10
2022-11-14T10:09:49.717Z,43.10
2022-11-14T10:10:49.672Z,44.60
2022-11-14T10:11:49.675Z,48.18
2022-11-14T10:12:49.726Z,51.38
2022-11-14T10:13:49.686Z,48.35
2022-11-14T10:14:49.668Z,46.77
2022-11-14T10:15:49.647Z,45.42
2022-11-14T10:16:49.678Z,44.70
2022-11-14T10:17:49.667Z,43.93
2022-11-14T10:18:49.660Z,43.51
2022-11-14T10:19:49.666Z,42.90
2022-11-14T10:20:49.750Z,43.67
2022-11-14T10:21:49.614Z,41.75
2022-11-14T10:22:49.633Z,43.74
2022-11-14T10:23:49.591Z,44.64
2022-11-14T10:24:49.611Z,44.09
2022-11-14T10:25:49.637Z,42.43
2022-11-14T10:26:49.611Z,42.11
2022-11-14T10:27:55.030Z,41.09
2022-11-14T10:28:49.584Z,39.66
2022-11-14T10:29:49.581Z,41.17
2022-11-14T10:30:49.571Z,41.80
2022-11-14T10:31:49.682Z,40.08
2022-11-14T10:32:49.565Z,40.76
2022-11-14T10:33:49.548Z,41.17
2022-11-14T10:34:49.569Z,41.44
2022-11-14T10:35:49.544Z,39.54
2022-11-14T10:36:49.679Z,41.60
2022-11-14T10:37:49.577Z,45.24
2022-11-14T10:38:49.527Z,46.16
2022-11-14T10:39:49.527Z,48.07
2022-11-14T10:40:49.538Z,46.34
2022-11-14T10:41:57.997Z,45.24
2022-11-14T10:42:51.765Z,44.56
2022-11-14T10:43:49.503Z,46.04
2022-11-14T10:44:49.509Z,47.17
2022-11-14T10:45:49.493Z,48.30
2022-11-14T10:46:50.342Z,49.48
2022-11-14T10:47:49.519Z,48.23
2022-11-14T10:48:49.748Z,47.14
2022-11-14T10:49:49.519Z,45.04
2022-11-14T10:50:49.482Z,46.54
2022-11-14T10:51:49.453Z,46.18
2022-11-14T10:52:49.495Z,47.65
2022-11-14T10:53:49.513Z,50.13
2022-11-14T10:54:55.076Z,49.01
2022-11-14T10:56:03.592Z,48.12
2022-11-14T10:56:51.475Z,50.60
2022-11-14T10:57:49.448Z,51.31
2022-11-14T10:58:50.117Z,52.92
2022-11-14T10:59:50.498Z,53.02
2022-11-14T11:00:49.485Z,52.82
2022-11-14T11:01:49.436Z,54.61
2022-11-14T11:02:49.416Z,55.21
2022-11-14T11:03:49.456Z,54.18
2022-11-14T11:04:49.449Z,55.09
2022-11-14T11:05:49.432Z,57.37
2022-11-14T11:06:49.460Z,58.07
2022-11-14T11:07:49.463Z,57.14
2022-11-14T11:08:49.722Z,55.93
2022-11-14T11:09:49.443Z,56.02
2022-11-14T11:10:49.423Z,55.87
2022-11-14T11:11:49.912Z,56.43
2022-11-14T11:12:49.390Z,55.77
2022-11-14T11:13:49.351Z,55.62
2022-11-14T11:14:49.348Z,55.77
2022-11-14T11:15:49.384Z,55.11
2022-11-14T11:16:49.362Z,54.89
2022-11-14T11:17:49.318Z,54.99
2022-11-14T11:18:50.835Z,58.23
2022-11-14T11:19:50.360Z,56.85
2022-11-14T11:20:49.333Z,55.47
2022-11-14T11:21:49.416Z,55.67
2022-11-14T11:22:49.306Z,57.09
2022-11-14T11:23:49.313Z,56.20
2022-11-14T11:24:49.283Z,54.38
2022-11-14T11:25:49.332Z,51.10
2022-11-14T11:26:49.285Z,53.58
2022-11-14T11:27:49.279Z,54.83
2022-11-14T11:28:49.283Z,54.33
2022-11-14T11:29:49.257Z,54.51
2022-11-14T11:30:54.287Z,54.21
2022-11-14T11:31:51.268Z,54.18
2022-11-14T11:32:49.275Z,53.25
2022-11-14T11:33:49.241Z,54.00
2022-11-14T11:34:49.271Z,51.23
2022-11-14T11:35:49.223Z,50.10
2022-11-14T11:36:49.326Z,50.65
2022-11-14T11:37:49.211Z,53.05
2022-11-14T11:38:49.234Z,54.33
2022-11-14T11:39:49.211Z,54.56
2022-11-14T11:40:49.209Z,53.00
2022-11-14T11:43:36.668Z,54.21
2022-11-14T11:43:56.556Z,55.04
2022-11-14T11:44:51.215Z,55.87
2022-11-14T11:45:49.181Z,55.94
2022-11-14T11:46:49.182Z,54.33
2022-11-14T11:47:49.175Z,54.16
2022-11-14T11:48:49.177Z,56.94
2022-11-14T11:49:53.790Z,57.69
2022-11-14T11:50:51.159Z,54.83
2022-11-14T11:51:49.220Z,52.80
2022-11-14T11:52:49.156Z,55.06
2022-11-14T11:53:49.121Z,54.20
2022-11-14T11:54:49.147Z,53.45
2022-11-14T11:55:49.128Z,50.66
2022-11-14T11:56:49.107Z,49.16
2022-11-14T11:57:49.114Z,49.04
2022-11-14T11:58:49.426Z,49.58
2022-11-14T11:59:49.122Z,48.46
2022-11-14T12:00:49.087Z,48.69
2022-11-14T12:01:49.145Z,46.94
2022-11-14T12:02:50.296Z,44.92
2022-11-14T12:03:49.211Z,43.87
2022-11-14T12:04:49.095Z,44.15
2022-11-14T12:05:49.106Z,44.97
2022-11-14T12:06:49.127Z,46.30
2022-11-14T12:07:49.088Z,46.28
2022-11-14T12:08:49.063Z,48.98
2022-11-14T12:10:09.816Z,49.73
2022-11-14T12:10:50.829Z,50.38
2022-11-14T12:11:49.045Z,52.44
2022-11-14T12:12:49.019Z,53.52
2022-11-14T12:13:49.055Z,52.82
2022-11-14T12:14:49.063Z,51.34
2022-11-14T12:15:49.083Z,48.86
2022-11-14T12:16:49.036Z,49.01
2022-11-14T12:17:49.019Z,48.33
2022-11-14T12:18:49.004Z,47.93
2022-11-14T12:19:49.031Z,49.16
2022-11-14T12:20:49.049Z,48.90
2022-11-14T12:21:51.051Z,50.73
2022-11-14T12:22:48.994Z,51.76
2022-11-14T12:23:48.984Z,54.96
2022-11-14T12:24:48.999Z,53.90
2022-11-14T12:25:48.977Z,50.91
2022-11-14T12:26:48.992Z,49.54
2022-11-14T12:27:49.029Z,48.28
2022-11-14T12:28:48.957Z,47.69
2022-11-14T12:29:48.954Z,48.07
2022-11-14T12:30:49.080Z,48.79
2022-11-14T12:31:48.915Z,50.39
2022-11-14T12:32:48.938Z,48.99
2022-11-14T12:33:48.923Z,49.46
2022-11-14T12:34:48.957Z,48.76
2022-11-14T12:35:49.036Z,49.28
2022-11-14T12:36:48.919Z,50.66
2022-11-14T12:37:54.279Z,53.34
2022-11-14T12:38:49.890Z,52.51
2022-11-14T12:39:48.889Z,51.46
2022-11-14T12:40:48.912Z,52.19
2022-11-14T12:41:48.910Z,55.74
2022-11-14T12:42:48.890Z,59.36
2022-11-14T12:43:48.949Z,60.86
2022-11-14T12:44:48.909Z,63.21
2022-11-14T12:45:48.860Z,64.73
2022-11-14T12:46:49.038Z,64.33
2022-11-14T12:47:48.878Z,63.89
2022-11-14T12:48:48.938Z,61.72
2022-11-14T12:49:48.869Z,61.90
2022-11-14T12:50:48.878Z,61.88
2022-11-14T12:51:48.835Z,62.99
2022-11-14T12:52:48.993Z,61.99
2022-11-14T12:53:48.857Z,60.19
2022-11-14T12:54:48.871Z,57.18